createdAt,value
2019-03-16T00:00:08.419Z,5.80
2019-03-16T00:02:36.466Z,5.70
2019-03-16T00:05:04.890Z,5.40
2019-03-16T00:07:33.451Z,4.43
2019-03-16T00:10:01.746Z,4.63
2019-03-16T00:12:29.813Z,4.47
2019-03-16T00:14:58.021Z,4.57
2019-03-16T00:17:26.094Z,6.27
2019-03-16T00:19:54.286Z,5.40
2019-03-16T00:22:22.342Z,5.87
2019-03-16T00:24:50.371Z,5.33
2019-03-16T00:27:18.494Z,5.60
2019-03-16T00:29:46.600Z,5.30
2019-03-16T00:32:14.667Z,4.93
2019-03-16T00:34:42.712Z,5.63
2019-03-16T00:37:10.771Z,4.93
2019-03-16T00:39:39.113Z,5.43
2019-03-16T00:42:07.235Z,4.33
2019-03-16T00:44:35.291Z,6.23
2019-03-16T00:47:03.340Z,4.57
2019-03-16T00:49:31.414Z,5.77
2019-03-16T00:51:59.492Z,5.40
2019-03-16T00:54:27.513Z,6.53
2019-03-16T00:56:55.599Z,6.50
2019-03-16T00:59:23.627Z,4.97
2019-03-16T01:01:51.712Z,5.37
2019-03-16T01:04:19.758Z,5.17
2019-03-16T01:06:47.850Z,5.90
2019-03-16T01:09:15.891Z,6.27
2019-03-16T01:11:43.988Z,5.07
2019-03-16T01:14:12.060Z,5.77
2019-03-16T01:16:40.172Z,6.10
2019-03-16T01:19:08.290Z,5.87
2019-03-16T01:21:36.438Z,5.50
2019-03-16T01:24:04.533Z,5.73
2019-03-16T01:26:32.631Z,5.30
2019-03-16T01:29:00.682Z,5.37
2019-03-16T01:31:28.784Z,5.23
2019-03-16T01:33:56.842Z,5.50
2019-03-16T01:36:24.921Z,6.00
2019-03-16T01:38:52.900Z,5.37
2019-03-16T01:41:20.943Z,5.23
2019-03-16T01:43:48.983Z,4.90
2019-03-16T01:46:17.046Z,4.60
2019-03-16T01:48:45.149Z,4.67
2019-03-16T01:51:13.251Z,5.80
2019-03-16T01:53:41.339Z,4.93
2019-03-16T01:56:09.440Z,4.53
2019-03-16T01:58:37.479Z,5.27
2019-03-16T02:01:05.554Z,5.33
2019-03-16T02:03:33.618Z,6.10
2019-03-16T02:06:01.737Z,5.60
2019-03-16T02:08:29.860Z,5.00
2019-03-16T02:10:58.044Z,5.33
2019-03-16T02:13:26.111Z,6.30
2019-03-16T02:15:54.150Z,5.63
2019-03-16T02:18:22.230Z,4.73
2019-03-16T02:20:50.295Z,5.60
2019-03-16T02:23:18.393Z,5.83
2019-03-16T02:25:46.459Z,4.30
2019-03-16T02:28:14.547Z,5.57
2019-03-16T02:30:42.676Z,4.17
2019-03-16T02:33:12.978Z,5.57
2019-03-16T02:35:40.544Z,5.80
2019-03-16T02:38:08.700Z,4.50
2019-03-16T02:40:36.740Z,5.40
2019-03-16T02:43:04.912Z,5.77
2019-03-16T02:45:32.942Z,5.73
2019-03-16T02:48:00.986Z,4.93
2019-03-16T02:50:29.053Z,5.73
2019-03-16T02:52:57.089Z,5.40
2019-03-16T02:55:25.149Z,5.90
2019-03-16T02:57:53.290Z,6.00
2019-03-16T03:00:21.332Z,5.33
2019-03-16T03:02:49.391Z,6.03
2019-03-16T03:05:32.554Z,5.23
2019-03-16T03:08:00.584Z,5.17
2019-03-16T03:10:28.653Z,5.40
2019-03-16T03:12:56.773Z,4.97
2019-03-16T03:15:24.844Z,5.40
2019-03-16T03:17:52.939Z,5.43
2019-03-16T03:20:20.970Z,5.53
2019-03-16T03:22:49.040Z,5.43
2019-03-16T03:25:17.108Z,5.93
2019-03-16T03:27:45.419Z,4.90
2019-03-16T03:30:13.496Z,5.70
2019-03-16T03:32:41.590Z,4.87
2019-03-16T03:38:30.827Z,5.90
2019-03-16T03:41:01.661Z,5.67
2019-03-16T03:43:28.889Z,5.90
2019-03-16T03:45:56.938Z,5.63
2019-03-16T03:48:25.029Z,4.97
2019-03-16T03:50:53.119Z,5.20
2019-03-16T03:53:21.842Z,5.47
2019-03-16T03:55:49.911Z,5.07
2019-03-16T03:58:18.028Z,5.30
2019-03-16T04:00:46.066Z,5.40
2019-03-16T04:03:14.205Z,4.80
2019-03-16T04:09:04.275Z,6.93
2019-03-16T04:14:53.765Z,5.83
2019-03-16T04:17:21.839Z,5.83
2019-03-16T04:19:49.894Z,5.87
2019-03-16T04:22:17.924Z,4.80
2019-03-16T04:24:45.989Z,5.97
2019-03-16T04:27:16.225Z,5.60
2019-03-16T04:29:43.872Z,5.53
2019-03-16T04:32:11.898Z,5.43
2019-03-16T04:34:39.994Z,5.30
2019-03-16T04:37:08.036Z,5.13
2019-03-16T04:39:36.127Z,5.60
2019-03-16T04:45:13.971Z,5.10
2019-03-16T04:47:42.058Z,5.57
2019-03-16T04:50:10.130Z,7.40
2019-03-16T04:52:38.188Z,5.23
2019-03-16T04:55:06.583Z,5.03
2019-03-16T04:57:34.654Z,4.40
2019-03-16T05:00:02.758Z,5.90
2019-03-16T05:02:30.838Z,4.80
2019-03-16T05:04:58.904Z,6.17
2019-03-16T05:07:26.975Z,5.00
2019-03-16T05:09:55.096Z,5.80
2019-03-16T05:12:23.162Z,4.60
2019-03-16T05:14:51.244Z,5.80
2019-03-16T05:17:19.279Z,5.40
2019-03-16T05:19:47.310Z,5.77
2019-03-16T05:22:15.363Z,5.83
2019-03-16T05:24:43.451Z,4.90
2019-03-16T05:27:11.573Z,5.43
2019-03-16T05:29:39.635Z,4.87
2019-03-16T05:32:07.742Z,4.93
2019-03-16T05:34:37.106Z,4.87
2019-03-16T05:37:05.193Z,5.47
2019-03-16T05:39:33.237Z,5.27
2019-03-16T05:42:01.314Z,4.97
2019-03-16T05:44:29.328Z,4.73
2019-03-16T05:46:57.375Z,5.20
2019-03-16T05:49:25.422Z,4.53
2019-03-16T05:51:53.477Z,4.93
2019-03-16T05:54:21.523Z,5.30
2019-03-16T05:56:49.592Z,4.40
2019-03-16T05:59:17.651Z,3.93
2019-03-16T06:01:45.761Z,5.10
2019-03-16T06:04:13.792Z,4.20
2019-03-16T06:06:41.888Z,5.33
2019-03-16T06:09:10.879Z,5.00
2019-03-16T06:11:38.944Z,5.40
2019-03-16T06:14:06.989Z,5.03
2019-03-16T06:16:35.064Z,4.07
2019-03-16T06:19:03.165Z,4.90
2019-03-16T06:21:31.263Z,4.67
2019-03-16T06:23:59.306Z,5.30
2019-03-16T06:26:27.412Z,5.17
2019-03-16T06:28:55.469Z,4.83
2019-03-16T06:31:23.553Z,4.37
2019-03-16T06:33:51.629Z,4.57
2019-03-16T06:36:19.682Z,4.50
2019-03-16T06:38:47.755Z,4.93
2019-03-16T06:41:15.776Z,4.57
2019-03-16T06:43:43.835Z,4.57
2019-03-16T06:46:11.824Z,4.00
2019-03-16T06:48:39.905Z,4.17
2019-03-16T06:51:07.958Z,5.30
2019-03-16T06:53:36.032Z,3.93
2019-03-16T06:56:04.205Z,4.00
2019-03-16T06:58:32.283Z,4.30
2019-03-16T07:01:00.377Z,4.00
2019-03-16T07:03:28.420Z,4.50
2019-03-16T07:05:56.479Z,4.17
2019-03-16T07:08:24.554Z,4.27
2019-03-16T07:10:52.596Z,4.20
2019-03-16T07:13:20.685Z,4.63
2019-03-16T07:15:48.773Z,3.50
2019-03-16T07:18:17.209Z,4.50
2019-03-16T07:20:45.224Z,3.60
2019-03-16T07:23:13.325Z,4.60
2019-03-16T07:25:41.361Z,3.43
2019-03-16T07:28:09.368Z,4.67
2019-03-16T07:30:37.498Z,3.77
2019-03-16T07:33:05.756Z,4.10
2019-03-16T07:35:33.816Z,4.43
2019-03-16T07:38:01.912Z,4.33
2019-03-16T07:40:29.972Z,4.03
2019-03-16T07:42:58.174Z,4.77
2019-03-16T07:45:26.231Z,4.40
2019-03-16T07:47:54.323Z,4.13
2019-03-16T07:50:22.415Z,4.87
2019-03-16T07:52:50.521Z,4.33
2019-03-16T07:55:18.699Z,3.97
2019-03-16T07:57:46.817Z,3.90
2019-03-16T08:00:14.973Z,3.93
2019-03-16T08:02:44.307Z,3.27
2019-03-16T08:05:18.812Z,3.57
2019-03-16T08:07:43.186Z,3.97
2019-03-16T08:10:11.381Z,4.10
2019-03-16T08:12:39.545Z,4.60
2019-03-16T08:15:07.686Z,4.97
2019-03-16T08:17:35.773Z,4.17
2019-03-16T08:20:10.181Z,4.80
2019-03-16T08:22:39.422Z,3.77
2019-03-16T08:25:17.796Z,4.00
2019-03-16T08:27:54.501Z,4.70
2019-03-16T08:30:24.369Z,3.63
2019-03-16T08:33:00.705Z,5.20
2019-03-16T08:35:29.679Z,4.40
2019-03-16T08:37:57.971Z,3.73
2019-03-16T08:40:26.937Z,4.43
2019-03-16T08:42:59.714Z,4.03
2019-03-16T08:45:28.271Z,4.77
2019-03-16T08:47:56.952Z,4.50
2019-03-16T08:50:25.024Z,4.17
2019-03-16T08:55:47.944Z,3.17
2019-03-16T08:58:16.860Z,4.03
2019-03-16T09:00:48.494Z,4.07
2019-03-16T09:03:17.469Z,3.57
2019-03-16T09:05:46.169Z,4.30
2019-03-16T09:08:17.325Z,4.00
2019-03-16T09:10:45.434Z,3.57
2019-03-16T09:13:13.504Z,3.67
2019-03-16T09:15:41.595Z,3.70
2019-03-16T09:18:09.705Z,3.50
2019-03-16T09:20:37.790Z,4.23
2019-03-16T09:23:05.850Z,3.10
2019-03-16T09:25:34.084Z,2.93
2019-03-16T09:28:02.132Z,2.73
2019-03-16T09:30:30.431Z,2.50
2019-03-16T09:32:59.068Z,2.77
2019-03-16T09:35:34.641Z,3.73
2019-03-16T09:38:05.326Z,3.43
2019-03-16T09:40:33.744Z,3.10
2019-03-16T09:43:05.028Z,2.87
2019-03-16T09:45:36.885Z,3.37
2019-03-16T09:48:05.249Z,3.53
2019-03-16T09:50:58.271Z,3.53
2019-03-16T09:53:07.937Z,3.30
2019-03-16T09:55:36.205Z,2.83
2019-03-16T09:58:04.346Z,2.93
2019-03-16T10:00:49.214Z,3.23
2019-03-16T10:03:25.370Z,2.43
2019-03-16T10:05:53.563Z,2.70
2019-03-16T10:08:31.024Z,3.20
2019-03-16T10:11:00.432Z,2.60
2019-03-16T10:13:32.126Z,2.80
2019-03-16T10:16:04.154Z,2.90
2019-03-16T10:18:32.244Z,2.90
2019-03-16T10:21:01.317Z,3.80
2019-03-16T10:23:30.958Z,3.10
2019-03-16T10:25:59.034Z,3.13
2019-03-16T10:28:27.016Z,2.83
2019-03-16T10:34:04.455Z,2.73
2019-03-16T10:39:53.957Z,2.60
2019-03-16T10:45:44.039Z,2.83
2019-03-16T10:48:12.130Z,2.60
2019-03-16T10:50:40.208Z,2.40
2019-03-16T10:53:08.299Z,2.30
2019-03-16T10:55:36.346Z,3.10
2019-03-16T10:58:06.403Z,2.77
2019-03-16T11:00:34.482Z,3.23
2019-03-16T11:03:05.910Z,3.50
2019-03-16T11:05:34.831Z,2.53
2019-03-16T11:08:06.304Z,2.57
2019-03-16T11:10:34.679Z,2.30
2019-03-16T11:13:04.725Z,2.53
2019-03-16T11:15:33.017Z,2.20
2019-03-16T11:18:01.260Z,2.07
2019-03-16T11:20:32.052Z,2.50
2019-03-16T11:23:00.346Z,2.20
2019-03-16T11:25:28.846Z,1.87
2019-03-16T11:27:57.181Z,1.93
2019-03-16T11:30:27.794Z,2.37
2019-03-16T11:33:03.971Z,2.20
2019-03-16T11:35:34.997Z,2.00
2019-03-16T11:38:03.801Z,1.60
2019-03-16T11:40:35.002Z,1.73
2019-03-16T11:43:03.387Z,2.17
2019-03-16T11:45:34.991Z,2.00
2019-03-16T11:48:03.335Z,2.03
2019-03-16T11:50:31.929Z,1.97
2019-03-16T11:53:06.410Z,1.77
2019-03-16T11:55:34.687Z,1.37
2019-03-16T11:58:03.378Z,2.27
2019-03-16T12:00:36.771Z,2.40
2019-03-16T12:03:05.447Z,3.63
2019-03-16T12:05:42.050Z,4.20
2019-03-16T12:08:20.247Z,5.73
2019-03-16T12:10:59.644Z,2.60
2019-03-16T12:13:29.968Z,1.90
2019-03-16T12:16:01.641Z,2.70
2019-03-16T12:21:55.543Z,2.20
2019-03-16T12:24:24.238Z,3.43
2019-03-16T12:26:52.695Z,6.47
2019-03-16T12:29:33.096Z,5.03
2019-03-16T12:31:51.558Z,4.30
2019-03-16T12:34:20.333Z,4.63
2019-03-16T12:36:49.179Z,4.00
2019-03-16T12:39:17.634Z,9.57
2019-03-16T12:41:45.895Z,9.07
2019-03-16T12:44:14.185Z,4.83
2019-03-16T12:46:43.526Z,3.40
2019-03-16T12:49:12.287Z,4.60
2019-03-16T12:51:40.869Z,8.13
2019-03-16T12:54:09.486Z,9.00
2019-03-16T12:56:38.340Z,7.10
2019-03-16T12:59:10.755Z,4.67
2019-03-16T13:01:36.217Z,3.70
2019-03-16T13:04:04.676Z,9.30
2019-03-16T13:06:33.242Z,4.97
2019-03-16T13:09:01.943Z,4.00
2019-03-16T13:11:30.610Z,5.40
2019-03-16T13:13:58.718Z,3.10
2019-03-16T13:16:26.901Z,4.63
2019-03-16T13:18:54.992Z,7.70
2019-03-16T13:21:23.272Z,4.80
2019-03-16T13:23:52.222Z,3.23
2019-03-16T13:26:20.406Z,4.10
2019-03-16T13:28:48.426Z,2.40
2019-03-16T13:31:16.800Z,1.37
2019-03-16T13:33:45.117Z,2.17
2019-03-16T13:36:13.377Z,2.60
2019-03-16T13:38:41.826Z,0.93
2019-03-16T13:41:10.354Z,5.80
2019-03-16T13:43:38.554Z,2.57
2019-03-16T13:46:06.736Z,1.87
2019-03-16T13:48:34.865Z,1.80
2019-03-16T13:51:02.951Z,1.30
2019-03-16T13:53:32.660Z,3.37
2019-03-16T13:56:01.345Z,4.13
2019-03-16T13:58:29.580Z,3.27
2019-03-16T14:01:00.753Z,3.97
2019-03-16T14:03:28.851Z,4.33
2019-03-16T14:05:57.325Z,3.77
2019-03-16T14:08:25.600Z,8.97
2019-03-16T14:10:53.742Z,4.83
2019-03-16T14:13:22.167Z,7.47
2019-03-16T14:15:50.364Z,4.60
2019-03-16T14:18:18.878Z,4.23
2019-03-16T14:20:47.635Z,4.57
2019-03-16T14:23:15.848Z,6.43
2019-03-16T14:25:44.256Z,12.27
2019-03-16T14:28:12.487Z,9.43
2019-03-16T14:30:42.673Z,9.93
2019-03-16T14:33:10.438Z,6.30
2019-03-16T14:35:38.577Z,8.10
2019-03-16T14:38:06.736Z,5.73
2019-03-16T14:40:34.988Z,5.10
2019-03-16T14:43:03.671Z,6.00
2019-03-16T14:46:10.863Z,6.30
2019-03-16T14:48:39.279Z,8.80
2019-03-16T14:51:07.396Z,6.23
2019-03-16T14:53:35.497Z,4.53
2019-03-16T14:56:03.878Z,7.43
2019-03-16T14:58:32.235Z,9.47
2019-03-16T15:01:01.153Z,12.67
2019-03-16T15:03:29.253Z,15.00
2019-03-16T15:05:57.381Z,9.23
2019-03-16T15:08:25.512Z,9.93
2019-03-16T15:10:53.925Z,14.63
2019-03-16T15:13:22.105Z,7.40
2019-03-16T15:15:50.470Z,19.17
2019-03-16T15:18:19.682Z,13.00
2019-03-16T15:20:48.451Z,11.80
2019-03-16T15:23:24.388Z,14.33
2019-03-16T15:25:52.489Z,13.93
2019-03-16T15:28:20.855Z,12.60
2019-03-16T15:30:50.965Z,16.73
2019-03-16T15:36:28.959Z,10.40
2019-03-16T15:38:57.230Z,15.63
2019-03-16T15:41:25.303Z,12.90
2019-03-16T15:43:53.473Z,12.80
2019-03-16T15:46:22.029Z,14.20
2019-03-16T15:48:50.649Z,12.83
2019-03-16T15:51:18.857Z,13.17
2019-03-16T15:53:47.560Z,12.90
2019-03-16T15:56:16.365Z,13.00
2019-03-16T15:58:44.942Z,11.33
2019-03-16T16:01:13.030Z,11.40
2019-03-16T16:03:41.667Z,12.20
2019-03-16T16:06:10.878Z,11.70
2019-03-16T16:08:39.112Z,12.77
2019-03-16T16:11:08.042Z,14.38
2019-03-16T16:13:36.831Z,12.30
2019-03-16T16:16:05.750Z,13.97
2019-03-16T16:18:34.608Z,13.47
2019-03-16T16:21:03.004Z,15.00
2019-03-16T16:23:31.600Z,16.10
2019-03-16T16:25:59.909Z,14.17
2019-03-16T16:28:28.094Z,14.50
2019-03-16T16:30:57.920Z,14.87
2019-03-16T16:33:26.154Z,15.37
2019-03-16T16:35:54.764Z,15.33
2019-03-16T16:38:24.118Z,14.70
2019-03-16T16:40:53.049Z,14.50
2019-03-16T16:43:21.264Z,15.13
2019-03-16T16:45:50.068Z,15.73
2019-03-16T16:48:19.097Z,15.23
2019-03-16T16:50:48.080Z,14.53
2019-03-16T16:53:16.754Z,15.63
2019-03-16T16:55:45.737Z,15.33
2019-03-16T16:58:14.437Z,14.17
2019-03-16T17:00:42.501Z,13.90
2019-03-16T17:03:10.669Z,13.70
2019-03-16T17:05:38.966Z,12.90
2019-03-16T17:08:07.766Z,11.80
2019-03-16T17:10:36.359Z,11.00
2019-03-16T17:13:04.795Z,11.83
2019-03-16T17:15:43.640Z,11.60
2019-03-16T17:18:12.036Z,11.43
2019-03-16T17:20:42.436Z,11.10
2019-03-16T17:23:11.133Z,11.33
2019-03-16T17:25:40.262Z,10.47
2019-03-16T17:28:08.981Z,9.97
2019-03-16T17:30:38.086Z,11.47
2019-03-16T17:33:07.055Z,9.07
2019-03-16T17:35:35.260Z,9.13
2019-03-16T17:38:04.204Z,9.20
2019-03-16T17:40:32.354Z,8.60
2019-03-16T17:43:00.472Z,8.90
2019-03-16T17:45:28.561Z,8.07
2019-03-16T17:47:56.645Z,8.63
2019-03-16T17:50:24.904Z,8.37
2019-03-16T17:52:53.538Z,7.37
2019-03-16T17:55:21.686Z,7.20
2019-03-16T17:57:50.086Z,7.60
2019-03-16T18:00:18.727Z,7.87
2019-03-16T18:03:05.830Z,7.60
2019-03-16T18:05:34.566Z,7.57
2019-03-16T18:08:04.481Z,7.43
2019-03-16T18:10:32.900Z,7.80
2019-03-16T18:13:01.645Z,6.90
2019-03-16T18:15:30.363Z,7.93
2019-03-16T18:17:59.161Z,8.00
2019-03-16T18:20:28.392Z,7.40
2019-03-16T18:22:57.167Z,7.70
2019-03-16T18:25:25.459Z,8.30
2019-03-16T18:27:54.601Z,7.50
2019-03-16T18:30:22.706Z,8.27
2019-03-16T18:32:51.123Z,8.30
2019-03-16T18:35:38.836Z,7.77
2019-03-16T18:38:07.290Z,6.97
2019-03-16T18:40:35.560Z,6.37
2019-03-16T18:43:04.793Z,7.23
2019-03-16T18:45:32.805Z,6.63
2019-03-16T18:48:01.521Z,6.30
2019-03-16T18:50:29.624Z,6.47
2019-03-16T18:52:57.710Z,6.33
2019-03-16T18:55:25.767Z,6.37
2019-03-16T18:57:53.941Z,6.80
2019-03-16T19:00:22.026Z,6.00
2019-03-16T19:02:50.824Z,6.20
2019-03-16T19:05:19.251Z,5.30
2019-03-16T19:07:47.483Z,5.80
2019-03-16T19:10:15.549Z,6.00
2019-03-16T19:12:43.706Z,5.87
2019-03-16T19:15:12.541Z,5.90
2019-03-16T19:17:40.763Z,6.10
2019-03-16T19:20:09.635Z,5.50
2019-03-16T19:22:37.774Z,4.63
2019-03-16T19:25:06.239Z,4.70
2019-03-16T19:27:34.288Z,4.00
2019-03-16T19:30:02.431Z,4.10
2019-03-16T19:32:33.896Z,3.87
2019-03-16T19:35:00.432Z,4.00
2019-03-16T19:37:28.533Z,4.80
2019-03-16T19:39:56.589Z,3.93
2019-03-16T19:42:24.700Z,4.17
2019-03-16T19:44:52.844Z,4.40
2019-03-16T19:47:20.944Z,4.20
2019-03-16T19:49:49.026Z,4.00
2019-03-16T19:52:17.096Z,4.00
2019-03-16T19:54:45.276Z,3.90
2019-03-16T19:57:16.278Z,3.03
2019-03-16T19:59:43.101Z,4.43
2019-03-16T20:02:11.226Z,3.43
2019-03-16T20:04:39.349Z,3.80
2019-03-16T20:07:18.686Z,3.13
2019-03-16T20:09:37.235Z,2.80
2019-03-16T20:12:05.359Z,3.10
2019-03-16T20:14:36.510Z,3.33
2019-03-16T20:17:04.754Z,2.67
2019-03-16T20:19:32.863Z,2.50
2019-03-16T20:22:01.081Z,2.97
2019-03-16T20:24:29.159Z,3.17
2019-03-16T20:26:57.292Z,3.60
2019-03-16T20:29:25.733Z,3.23
2019-03-16T20:31:53.870Z,2.97
2019-03-16T20:34:21.962Z,3.13
2019-03-16T20:36:50.070Z,2.57
2019-03-16T20:39:18.192Z,2.70
2019-03-16T20:41:46.310Z,2.53
2019-03-16T20:44:14.451Z,2.60
2019-03-16T20:46:42.643Z,2.77
2019-03-16T20:49:10.790Z,2.67
2019-03-16T20:51:38.908Z,3.23
2019-03-16T20:56:41.757Z,2.67
2019-03-16T20:59:09.893Z,2.80
2019-03-16T21:01:38.511Z,3.03
2019-03-16T21:04:06.591Z,2.80
2019-03-16T21:06:34.731Z,2.53
2019-03-16T21:09:03.685Z,2.67
2019-03-16T21:11:33.879Z,2.97
2019-03-16T21:14:02.098Z,2.73
2019-03-16T21:16:30.185Z,3.07
2019-03-16T21:18:58.261Z,3.03
2019-03-16T21:21:29.371Z,3.30
2019-03-16T21:24:08.915Z,2.50
2019-03-16T21:26:37.015Z,2.77
2019-03-16T21:29:05.468Z,2.70
2019-03-16T21:31:33.543Z,2.63
2019-03-16T21:34:01.724Z,2.33
2019-03-16T21:36:40.958Z,2.17
2019-03-16T21:38:59.609Z,3.53
2019-03-16T21:41:27.679Z,2.80
2019-03-16T21:43:55.744Z,2.53
2019-03-16T21:46:23.860Z,2.97
2019-03-16T21:48:51.959Z,2.30
2019-03-16T21:51:20.044Z,2.63
2019-03-16T21:53:48.092Z,2.60
2019-03-16T21:56:16.162Z,2.60
2019-03-16T21:58:44.309Z,2.93
2019-03-16T22:01:12.485Z,2.83
2019-03-16T22:03:41.982Z,2.40
2019-03-16T22:06:10.444Z,2.73
2019-03-16T22:08:38.536Z,2.53
2019-03-16T22:11:06.712Z,2.43
2019-03-16T22:13:34.814Z,3.30
2019-03-16T22:16:02.940Z,2.50
2019-03-16T22:18:31.042Z,3.07
2019-03-16T22:20:59.073Z,2.90
2019-03-16T22:23:27.388Z,2.93
2019-03-16T22:25:55.513Z,2.90
2019-03-16T22:28:23.936Z,3.30
2019-03-16T22:30:51.982Z,3.40
2019-03-16T22:33:20.133Z,3.30
2019-03-16T22:35:48.274Z,3.17
2019-03-16T22:38:16.313Z,3.37
2019-03-16T22:40:44.475Z,3.10
2019-03-16T22:43:15.396Z,3.67
2019-03-16T22:45:42.314Z,3.40
2019-03-16T22:48:10.594Z,3.53
2019-03-16T22:50:38.986Z,3.70
2019-03-16T22:53:07.427Z,3.47
2019-03-16T22:55:35.426Z,3.33
2019-03-16T22:58:03.552Z,2.90
2019-03-16T23:00:43.124Z,3.20
2019-03-16T23:03:11.325Z,3.03
2019-03-16T23:05:39.380Z,3.20
2019-03-16T23:08:07.425Z,3.53
2019-03-16T23:10:35.512Z,3.83
2019-03-16T23:13:03.558Z,3.33
2019-03-16T23:15:31.894Z,2.97
2019-03-16T23:17:59.910Z,3.77
2019-03-16T23:20:27.977Z,2.93
2019-03-16T23:22:56.987Z,2.90
2019-03-16T23:25:25.066Z,3.13
2019-03-16T23:27:53.129Z,2.80
2019-03-16T23:30:21.184Z,3.10
2019-03-16T23:32:49.288Z,3.23
2019-03-16T23:35:17.396Z,3.20
2019-03-16T23:37:45.520Z,3.60
2019-03-16T23:40:13.597Z,2.97
2019-03-16T23:42:41.709Z,2.87
2019-03-16T23:45:09.976Z,3.03
2019-03-16T23:47:38.031Z,3.33
2019-03-16T23:50:06.304Z,3.13
2019-03-16T23:52:36.870Z,3.30
2019-03-16T23:55:04.189Z,3.60
2019-03-16T23:57:32.251Z,3.40
